Sedan, Kansas
Current Conditions -  °F | °C
As of 8:15 AM on Monday 20 Oct 2014 (Local Time) from KIDP Reporting Station
Scattered Clouds Scattered Clouds  
Wind Chill: 55°   Ceiling: Unl
Heat Index: 55°   Visibility: 10mi
Dew Point: 52°   Wind: 5mph
Humidity: 88%   Direction: 190°S
Pressure: 30.05"   Gusts: NA
Location:  37.13°N, 96.19°W
Report Text: KIDP 201315Z AUTO 19004KT 10SM SCT041 SCT048 13/11 A3005 RMK AO2
Loading
Personal Weather Stations






























Interactive Weather Map
Tropical Storm Tracking
New forecast layout! Learn more

10-Day Weather Forecast

Advertisements
Track Severe Weather on mobile